createdAt,value
2022-10-20T00:03:55.981Z,1.10
2022-10-20T00:06:30.468Z,1.10
2022-10-20T00:09:01.901Z,0.90
2022-10-20T00:11:31.287Z,1.00
2022-10-20T00:14:02.403Z,0.80
2022-10-20T00:16:35.945Z,1.20
2022-10-20T00:19:04.536Z,0.90
2022-10-20T00:21:33.473Z,1.10
2022-10-20T00:24:02.877Z,1.00
2022-10-20T00:26:33.125Z,0.90
2022-10-20T00:29:04.089Z,0.80
2022-10-20T00:31:32.735Z,0.80
2022-10-20T00:34:01.120Z,0.90
2022-10-20T00:36:29.660Z,0.80
2022-10-20T00:39:03.977Z,0.70
2022-10-20T00:41:33.909Z,0.80
2022-10-20T00:44:42.244Z,1.10
2022-10-20T00:47:19.800Z,0.60
2022-10-20T00:49:50.252Z,0.80
2022-10-20T00:52:21.157Z,0.60
2022-10-20T00:54:50.040Z,0.60
2022-10-20T00:57:19.178Z,0.50
2022-10-20T00:59:47.748Z,1.00
2022-10-20T01:02:16.151Z,0.60
2022-10-20T01:04:44.714Z,0.60
2022-10-20T01:07:13.112Z,0.60
2022-10-20T01:09:41.783Z,0.50
2022-10-20T01:12:34.137Z,0.70
2022-10-20T01:15:32.007Z,0.70
2022-10-20T01:18:33.359Z,0.80
2022-10-20T01:21:44.336Z,0.70
2022-10-20T01:24:39.957Z,0.70
2022-10-20T01:27:30.540Z,0.60
2022-10-20T01:30:18.681Z,0.60
2022-10-20T01:33:34.262Z,0.60
2022-10-20T01:36:18.322Z,0.70
2022-10-20T01:39:00.425Z,0.60
2022-10-20T01:41:49.704Z,0.80
2022-10-20T01:44:19.947Z,0.50
2022-10-20T01:46:48.973Z,0.60
2022-10-20T01:49:17.579Z,0.70
2022-10-20T01:51:46.065Z,0.60
2022-10-20T01:54:27.577Z,0.50
2022-10-20T01:57:17.651Z,0.60
2022-10-20T02:00:06.028Z,0.70
2022-10-20T02:03:30.382Z,0.50
2022-10-20T02:06:35.510Z,0.50
2022-10-20T02:09:08.953Z,0.60
2022-10-20T02:12:29.193Z,0.80
2022-10-20T02:14:58.412Z,0.80
2022-10-20T02:17:29.133Z,0.60
2022-10-20T02:19:58.484Z,0.60
2022-10-20T02:22:27.628Z,0.60
2022-10-20T02:24:56.309Z,0.50
2022-10-20T02:27:34.426Z,0.80
2022-10-20T02:30:09.980Z,0.50
2022-10-20T02:32:41.513Z,0.50
2022-10-20T02:35:15.398Z,0.50
2022-10-20T02:37:44.026Z,0.70
2022-10-20T02:40:13.115Z,0.60
2022-10-20T02:42:43.552Z,0.60
2022-10-20T02:45:11.924Z,0.60
2022-10-20T02:47:40.406Z,0.80
2022-10-20T02:50:10.313Z,0.80
2022-10-20T02:52:38.698Z,0.60
2022-10-20T02:55:08.170Z,0.60
2022-10-20T02:57:36.887Z,0.80
2022-10-20T03:00:07.333Z,0.60
2022-10-20T03:02:35.597Z,0.60
2022-10-20T03:05:04.267Z,0.80
2022-10-20T03:07:32.807Z,0.60
2022-10-20T03:10:01.221Z,0.60
2022-10-20T03:12:31.568Z,0.80
2022-10-20T03:15:00.633Z,0.90
2022-10-20T03:17:29.124Z,0.70
2022-10-20T03:19:57.507Z,0.60
2022-10-20T03:22:25.927Z,0.70
2022-10-20T03:24:54.360Z,0.60
2022-10-20T03:27:22.695Z,0.60
2022-10-20T03:29:51.093Z,0.70
2022-10-20T03:32:19.792Z,0.80
2022-10-20T03:34:48.026Z,0.70
2022-10-20T03:37:16.282Z,0.60
2022-10-20T03:39:44.538Z,0.60
2022-10-20T03:42:12.921Z,0.60
2022-10-20T03:44:41.300Z,0.60
2022-10-20T03:47:09.781Z,0.70
2022-10-20T03:49:39.143Z,0.60
2022-10-20T03:52:07.747Z,0.70
2022-10-20T03:54:37.006Z,0.60
2022-10-20T03:57:07.646Z,0.80
2022-10-20T03:59:36.688Z,0.50
2022-10-20T04:02:05.343Z,0.70
2022-10-20T04:04:33.979Z,0.50
2022-10-20T04:07:02.228Z,0.70
2022-10-20T04:09:31.726Z,0.60
2022-10-20T04:12:00.023Z,0.60
2022-10-20T04:14:28.488Z,0.60
2022-10-20T04:16:56.760Z,0.70
2022-10-20T04:19:25.183Z,0.70
2022-10-20T04:21:53.677Z,0.60
2022-10-20T04:24:21.998Z,0.60
2022-10-20T04:29:23.449Z,0.60
2022-10-20T04:31:51.762Z,0.70
2022-10-20T04:34:20.060Z,0.70
2022-10-20T04:36:48.366Z,0.80
2022-10-20T04:39:17.090Z,0.50
2022-10-20T04:41:46.136Z,0.90
2022-10-20T04:44:14.635Z,0.70
2022-10-20T04:46:43.354Z,0.60
2022-10-20T04:49:11.691Z,0.90
2022-10-20T04:51:40.392Z,0.60
2022-10-20T04:54:08.679Z,0.70
2022-10-20T04:56:37.005Z,0.60
2022-10-20T04:59:09.494Z,0.70
2022-10-20T05:01:41.207Z,0.60
2022-10-20T05:04:11.157Z,0.80
2022-10-20T05:06:39.381Z,0.70
2022-10-20T05:09:07.785Z,0.60
2022-10-20T05:11:37.122Z,0.70
2022-10-20T05:14:05.478Z,0.60
2022-10-20T05:16:34.577Z,0.80
2022-10-20T05:19:03.098Z,0.50
2022-10-20T05:21:32.050Z,0.60
2022-10-20T05:24:03.969Z,0.70
2022-10-20T05:26:37.284Z,0.70
2022-10-20T05:29:08.730Z,0.70
2022-10-20T05:31:44.444Z,0.60
2022-10-20T05:34:15.827Z,0.60
2022-10-20T05:36:44.393Z,0.70
2022-10-20T05:39:12.666Z,0.60
2022-10-20T05:41:41.003Z,0.70
2022-10-20T05:44:12.534Z,0.50
2022-10-20T05:46:42.806Z,0.60
2022-10-20T05:49:17.709Z,0.50
2022-10-20T05:51:47.382Z,0.60
2022-10-20T05:54:16.152Z,0.70
2022-10-20T05:56:44.517Z,0.70
2022-10-20T05:59:14.317Z,0.90
2022-10-20T06:01:51.173Z,0.60
2022-10-20T06:04:28.148Z,0.60
2022-10-20T06:06:56.751Z,0.70
2022-10-20T06:09:25.142Z,0.70
2022-10-20T06:11:54.029Z,0.60
2022-10-20T06:14:22.692Z,0.70
2022-10-20T06:16:54.320Z,0.70
2022-10-20T06:19:24.317Z,0.80
2022-10-20T06:21:52.801Z,0.60
2022-10-20T06:24:21.873Z,0.70
2022-10-20T06:26:50.484Z,0.80
2022-10-20T06:29:19.652Z,1.00
2022-10-20T06:31:51.318Z,0.70
2022-10-20T06:34:24.046Z,0.80
2022-10-20T06:36:53.191Z,1.00
2022-10-20T06:39:24.210Z,1.00
2022-10-20T06:41:59.444Z,0.70
2022-10-20T06:44:33.039Z,0.80
2022-10-20T06:47:01.290Z,0.90
2022-10-20T06:49:29.774Z,1.00
2022-10-20T06:51:57.997Z,0.90
2022-10-20T06:54:26.464Z,1.20
2022-10-20T06:56:54.711Z,1.00
2022-10-20T06:59:23.076Z,1.30
2022-10-20T07:01:53.262Z,1.10
2022-10-20T07:04:21.739Z,1.00
2022-10-20T07:06:50.356Z,1.30
2022-10-20T07:09:19.722Z,1.30
2022-10-20T07:11:52.933Z,1.20
2022-10-20T07:14:21.425Z,1.50
2022-10-20T07:16:49.781Z,1.00
2022-10-20T07:19:19.042Z,1.10
2022-10-20T07:21:47.287Z,1.20
2022-10-20T07:24:16.908Z,1.20
2022-10-20T07:29:14.942Z,1.20
2022-10-20T07:31:48.350Z,1.10
2022-10-20T07:34:27.122Z,1.20
2022-10-20T07:39:26.047Z,1.30
2022-10-20T07:41:54.766Z,0.90
2022-10-20T07:44:23.248Z,1.20
2022-10-20T07:46:51.914Z,1.30
2022-10-20T07:52:08.615Z,1.30
2022-10-20T07:54:36.918Z,1.50
2022-10-20T07:57:05.214Z,1.70
2022-10-20T07:59:33.636Z,1.90
2022-10-20T08:02:02.189Z,1.80
2022-10-20T08:04:31.831Z,1.60
2022-10-20T08:07:00.899Z,1.50
2022-10-20T08:09:29.309Z,2.40
2022-10-20T08:11:57.629Z,1.40
2022-10-20T08:14:32.127Z,1.40
2022-10-20T08:17:02.238Z,1.40
2022-10-20T08:19:32.204Z,1.40
2022-10-20T08:22:00.649Z,1.80
2022-10-20T08:24:29.400Z,2.10
2022-10-20T08:26:57.709Z,1.90
2022-10-20T08:29:26.065Z,3.20
2022-10-20T08:31:54.363Z,2.30
2022-10-20T08:34:22.714Z,4.10
2022-10-20T08:36:50.977Z,3.60
2022-10-20T08:39:19.722Z,3.30
2022-10-20T08:42:08.854Z,4.10
2022-10-20T08:44:40.763Z,2.30
2022-10-20T08:47:30.882Z,2.00
2022-10-20T08:50:05.932Z,1.50
2022-10-20T08:52:34.604Z,1.80
2022-10-20T08:55:05.765Z,1.60
2022-10-20T08:57:36.483Z,1.70
2022-10-20T09:00:21.491Z,2.00
2022-10-20T09:02:51.992Z,1.60
2022-10-20T09:05:26.992Z,1.70
2022-10-20T09:07:55.323Z,1.90
2022-10-20T09:10:38.786Z,1.80
2022-10-20T09:13:18.642Z,1.40
2022-10-20T09:15:50.092Z,1.50
2022-10-20T09:18:19.514Z,1.50
2022-10-20T09:20:56.277Z,1.50
2022-10-20T09:23:43.787Z,1.70
2022-10-20T09:26:57.470Z,1.20
2022-10-20T09:29:38.120Z,0.90
2022-10-20T09:32:47.795Z,1.00
2022-10-20T09:35:31.961Z,1.00
2022-10-20T09:38:29.762Z,1.10
2022-10-20T09:41:18.097Z,1.00
2022-10-20T09:44:13.866Z,1.20
2022-10-20T09:46:49.669Z,1.10
2022-10-20T09:49:30.590Z,1.10
2022-10-20T09:52:01.377Z,1.50
2022-10-20T09:54:30.777Z,1.50
2022-10-20T09:57:18.568Z,1.20
2022-10-20T09:59:51.139Z,1.20
2022-10-20T10:02:22.444Z,1.70
2022-10-20T10:04:55.181Z,1.40
2022-10-20T10:07:26.615Z,1.40
2022-10-20T10:10:08.186Z,1.10
2022-10-20T10:12:37.391Z,1.10
2022-10-20T10:15:23.998Z,1.50
2022-10-20T10:17:52.685Z,1.00
2022-10-20T10:20:37.591Z,1.00
2022-10-20T10:23:24.869Z,1.10
2022-10-20T10:25:55.751Z,1.30
2022-10-20T10:28:37.379Z,1.10
2022-10-20T10:33:56.667Z,0.90
2022-10-20T10:36:34.994Z,0.90
2022-10-20T10:39:12.140Z,1.00
2022-10-20T10:42:17.149Z,0.90
2022-10-20T10:45:12.633Z,1.20
2022-10-20T10:48:27.777Z,1.10
2022-10-20T10:51:02.985Z,1.20
2022-10-20T10:54:15.087Z,1.10
2022-10-20T10:56:54.898Z,1.10
2022-10-20T10:59:35.650Z,1.10
2022-10-20T11:02:37.671Z,0.80
2022-10-20T11:05:49.603Z,0.70
2022-10-20T11:09:02.550Z,1.00
2022-10-20T11:11:52.662Z,1.10
2022-10-20T11:14:59.293Z,1.20
2022-10-20T11:17:32.445Z,1.10
2022-10-20T11:20:54.498Z,0.80
2022-10-20T11:24:13.044Z,0.80
2022-10-20T11:26:47.786Z,1.00
2022-10-20T11:29:46.896Z,1.00
2022-10-20T11:32:15.225Z,1.30
2022-10-20T11:35:16.112Z,1.00
2022-10-20T11:38:21.521Z,0.90
2022-10-20T11:41:04.634Z,1.00
2022-10-20T11:43:58.695Z,0.80
2022-10-20T11:46:47.632Z,2.10
2022-10-20T11:49:16.173Z,0.80
2022-10-20T11:52:13.653Z,0.80
2022-10-20T11:55:01.498Z,0.90
2022-10-20T11:58:01.293Z,0.90
2022-10-20T12:00:58.950Z,0.80
2022-10-20T12:03:53.909Z,0.90
2022-10-20T12:07:18.448Z,0.80
2022-10-20T12:10:00.534Z,0.80
2022-10-20T12:12:39.176Z,1.40
2022-10-20T12:15:24.425Z,0.60
2022-10-20T12:17:55.379Z,1.00
2022-10-20T12:20:51.382Z,0.90
2022-10-20T12:23:53.475Z,0.90
2022-10-20T12:27:09.486Z,0.70
2022-10-20T12:29:37.930Z,0.80
2022-10-20T12:32:36.527Z,1.00
2022-10-20T12:35:11.509Z,0.90
2022-10-20T12:37:42.396Z,0.70
2022-10-20T12:40:13.330Z,0.80
2022-10-20T12:42:48.733Z,1.00
2022-10-20T12:45:19.741Z,1.10
2022-10-20T12:48:01.438Z,0.90
2022-10-20T12:50:47.248Z,0.70
2022-10-20T12:53:29.728Z,0.90
2022-10-20T12:56:05.493Z,0.90
2022-10-20T12:59:08.899Z,0.90
2022-10-20T13:02:20.194Z,1.10
2022-10-20T13:05:06.462Z,1.00
2022-10-20T13:07:49.883Z,0.90
2022-10-20T13:10:27.427Z,1.10
2022-10-20T13:13:01.911Z,1.00
2022-10-20T13:15:43.044Z,1.20
2022-10-20T13:18:11.931Z,0.80
2022-10-20T13:20:49.652Z,1.00
2022-10-20T13:23:26.825Z,0.90
2022-10-20T13:26:05.504Z,1.00
2022-10-20T13:28:34.186Z,1.10
2022-10-20T13:31:33.880Z,0.90
2022-10-20T13:34:25.270Z,0.90
2022-10-20T13:37:41.952Z,0.90
2022-10-20T13:41:13.401Z,1.10
2022-10-20T13:43:57.754Z,0.90
2022-10-20T13:46:51.218Z,0.90
2022-10-20T13:49:55.198Z,1.50
2022-10-20T13:52:29.362Z,0.90
2022-10-20T13:55:00.030Z,1.00
2022-10-20T13:57:33.241Z,1.00
2022-10-20T14:00:16.259Z,0.90
2022-10-20T14:03:06.590Z,0.90
2022-10-20T14:05:39.681Z,0.90
2022-10-20T14:08:10.730Z,0.90
2022-10-20T14:11:04.841Z,1.00
2022-10-20T14:13:35.965Z,1.30
2022-10-20T14:16:07.558Z,1.10
2022-10-20T14:18:39.675Z,1.10
2022-10-20T14:21:19.255Z,1.10
2022-10-20T14:26:21.982Z,0.90
2022-10-20T14:28:52.253Z,0.80
2022-10-20T14:31:25.421Z,1.20
2022-10-20T14:33:53.929Z,1.00
2022-10-20T14:36:30.796Z,1.00
2022-10-20T14:39:01.220Z,0.90
2022-10-20T14:41:36.572Z,1.10
2022-10-20T14:44:14.700Z,1.10
2022-10-20T14:46:53.564Z,1.00
2022-10-20T14:49:38.108Z,1.10
2022-10-20T14:52:32.049Z,1.00
2022-10-20T14:55:00.345Z,1.10
2022-10-20T14:57:31.881Z,1.00
2022-10-20T15:00:22.082Z,1.10
2022-10-20T15:02:56.545Z,1.20
2022-10-20T15:05:32.462Z,1.20
2022-10-20T15:08:18.253Z,1.50
2022-10-20T15:10:46.893Z,1.10
2022-10-20T15:13:33.061Z,1.30
2022-10-20T15:16:04.667Z,1.10
2022-10-20T15:18:37.786Z,1.20
2022-10-20T15:21:08.647Z,1.40
2022-10-20T15:23:36.881Z,1.20
2022-10-20T15:26:11.046Z,1.40
2022-10-20T15:28:49.220Z,1.50
2022-10-20T15:31:21.269Z,1.40
2022-10-20T15:33:49.752Z,1.30
2022-10-20T15:36:28.402Z,1.20
2022-10-20T15:38:57.179Z,1.30
2022-10-20T15:41:31.776Z,1.60
2022-10-20T15:44:08.106Z,1.40
2022-10-20T15:46:36.388Z,1.50
2022-10-20T15:49:04.703Z,1.40
2022-10-20T15:51:36.317Z,1.70
2022-10-20T15:54:04.735Z,2.10
2022-10-20T15:56:33.902Z,1.80
2022-10-20T15:59:03.049Z,1.80
2022-10-20T16:01:31.461Z,1.90
2022-10-20T16:04:03.360Z,1.90
2022-10-20T16:06:31.623Z,1.80
2022-10-20T16:08:59.907Z,1.80
2022-10-20T16:11:28.254Z,1.60
2022-10-20T16:13:56.542Z,2.00
2022-10-20T16:16:24.858Z,1.50
2022-10-20T16:18:53.150Z,1.50
2022-10-20T16:21:21.487Z,1.90
2022-10-20T16:23:49.821Z,2.00
2022-10-20T16:26:18.128Z,2.30
2022-10-20T16:28:46.353Z,2.30
2022-10-20T16:31:16.450Z,2.00
2022-10-20T16:33:45.282Z,2.00
2022-10-20T16:36:16.420Z,1.80
2022-10-20T16:38:45.291Z,2.00
2022-10-20T16:41:15.992Z,2.00
2022-10-20T16:43:46.042Z,1.90
2022-10-20T16:46:15.997Z,2.10
2022-10-20T16:48:47.649Z,2.10
2022-10-20T16:51:17.419Z,2.10
2022-10-20T16:53:45.801Z,1.90
2022-10-20T16:56:16.891Z,2.10
2022-10-20T16:58:49.166Z,1.70
2022-10-20T17:01:22.418Z,1.70
2022-10-20T17:03:53.195Z,2.00
2022-10-20T17:06:25.264Z,1.90
2022-10-20T17:08:54.537Z,2.00
2022-10-20T17:11:27.262Z,2.10
2022-10-20T17:13:55.586Z,2.00
2022-10-20T17:16:33.977Z,1.90
2022-10-20T17:19:02.867Z,1.90
2022-10-20T17:21:33.647Z,2.20
2022-10-20T17:24:02.562Z,2.20
2022-10-20T17:26:31.584Z,1.80
2022-10-20T17:29:01.483Z,2.00
2022-10-20T17:31:30.629Z,2.10
2022-10-20T17:34:00.065Z,2.50
2022-10-20T17:36:29.976Z,2.10
2022-10-20T17:39:06.547Z,2.20
2022-10-20T17:41:36.000Z,2.20
2022-10-20T17:44:06.406Z,2.00
2022-10-20T17:46:35.169Z,2.00
2022-10-20T17:49:03.502Z,1.80
2022-10-20T17:51:34.848Z,2.40
2022-10-20T17:54:04.030Z,2.10
2022-10-20T17:56:36.148Z,2.10
2022-10-20T17:59:07.677Z,2.60
2022-10-20T18:01:39.361Z,2.20
2022-10-20T18:04:16.827Z,2.50
2022-10-20T18:06:45.760Z,2.80
2022-10-20T18:09:17.355Z,2.20
2022-10-20T18:11:49.445Z,2.60
2022-10-20T18:14:18.395Z,2.60
2022-10-20T18:16:47.319Z,2.20
2022-10-20T18:19:19.193Z,2.30
2022-10-20T18:21:47.907Z,2.40
2022-10-20T18:24:17.976Z,2.30
2022-10-20T18:26:46.782Z,2.40
2022-10-20T18:29:16.722Z,2.60
2022-10-20T18:31:47.650Z,2.80
2022-10-20T18:34:20.791Z,2.70
2022-10-20T18:36:51.595Z,2.30
2022-10-20T18:39:20.216Z,2.50
2022-10-20T18:41:52.522Z,3.00
2022-10-20T18:44:21.238Z,2.20
2022-10-20T18:46:51.256Z,2.50
2022-10-20T18:49:21.531Z,2.70
2022-10-20T18:51:50.606Z,2.50
2022-10-20T18:54:19.122Z,2.70
2022-10-20T18:56:47.717Z,2.60
2022-10-20T18:59:17.451Z,3.00
2022-10-20T19:04:14.584Z,2.50
2022-10-20T19:06:46.741Z,2.70
2022-10-20T19:09:21.490Z,2.60
2022-10-20T19:14:23.774Z,2.60
2022-10-20T19:16:53.565Z,2.80
2022-10-20T19:19:23.079Z,2.90
2022-10-20T19:21:51.362Z,2.70
2022-10-20T19:24:23.923Z,2.90
2022-10-20T19:27:24.481Z,2.80
2022-10-20T19:29:46.303Z,2.90
2022-10-20T19:32:14.791Z,2.90
2022-10-20T19:34:43.266Z,3.30
2022-10-20T19:37:11.521Z,2.80
2022-10-20T19:39:42.996Z,2.60
2022-10-20T19:42:11.858Z,3.00
2022-10-20T19:44:40.243Z,3.10
2022-10-20T19:47:09.134Z,3.50
2022-10-20T19:49:37.918Z,3.30
2022-10-20T19:52:07.854Z,3.40
2022-10-20T19:54:36.229Z,3.30
2022-10-20T19:57:06.449Z,3.30
2022-10-20T19:59:34.829Z,3.80
2022-10-20T20:02:03.910Z,3.70
2022-10-20T20:04:32.281Z,3.90
2022-10-20T20:07:02.454Z,3.50
2022-10-20T20:09:31.806Z,3.20
2022-10-20T20:12:00.319Z,3.70
2022-10-20T20:14:28.667Z,3.50
2022-10-20T20:16:56.994Z,3.80
2022-10-20T20:19:25.643Z,3.90
2022-10-20T20:21:54.025Z,3.90
2022-10-20T20:24:22.402Z,3.60
2022-10-20T20:26:50.765Z,3.60
2022-10-20T20:29:19.258Z,3.70
2022-10-20T20:31:48.458Z,4.00
2022-10-20T20:34:16.938Z,4.10
2022-10-20T20:36:45.419Z,3.90
2022-10-20T20:39:13.762Z,3.70
2022-10-20T20:41:42.256Z,3.90
2022-10-20T20:44:10.798Z,3.90
2022-10-20T20:46:39.238Z,4.00
2022-10-20T20:49:07.607Z,4.30
2022-10-20T20:51:35.972Z,4.30
2022-10-20T20:54:04.461Z,4.00
2022-10-20T20:56:33.061Z,3.80
2022-10-20T20:59:01.438Z,4.00
2022-10-20T21:01:34.168Z,3.80
2022-10-20T21:04:05.659Z,3.60
2022-10-20T21:06:56.635Z,3.80
2022-10-20T21:09:22.585Z,4.50
2022-10-20T21:11:50.861Z,4.00
2022-10-20T21:14:19.258Z,3.20
2022-10-20T21:16:47.614Z,4.10
2022-10-20T21:19:16.113Z,4.00
2022-10-20T21:21:50.933Z,4.20
2022-10-20T21:24:19.317Z,4.30
2022-10-20T21:26:48.946Z,4.50
2022-10-20T21:29:17.703Z,4.20
2022-10-20T21:31:46.403Z,4.40
2022-10-20T21:34:14.785Z,4.50
2022-10-20T21:36:43.285Z,4.10
2022-10-20T21:39:16.162Z,4.00
2022-10-20T21:41:46.320Z,4.50
2022-10-20T21:44:15.302Z,4.90
2022-10-20T21:46:49.406Z,4.40
2022-10-20T21:49:26.098Z,4.50
2022-10-20T21:51:57.415Z,4.40
2022-10-20T21:54:29.536Z,4.90
2022-10-20T21:56:58.121Z,4.60
2022-10-20T21:59:29.549Z,4.60
2022-10-20T22:02:00.721Z,4.50
2022-10-20T22:04:31.159Z,4.70
2022-10-20T22:06:59.908Z,5.00
2022-10-20T22:09:28.443Z,4.70
2022-10-20T22:11:59.194Z,5.00
2022-10-20T22:14:28.234Z,5.00
2022-10-20T22:16:56.817Z,5.40
2022-10-20T22:19:25.631Z,5.60
2022-10-20T22:21:54.380Z,5.00
2022-10-20T22:24:23.569Z,5.20
2022-10-20T22:26:53.190Z,4.90
2022-10-20T22:29:22.828Z,5.30
2022-10-20T22:34:20.613Z,4.80
2022-10-20T22:36:48.997Z,5.30
2022-10-20T22:39:17.574Z,5.00
2022-10-20T22:41:45.948Z,5.90
2022-10-20T22:44:14.245Z,4.90
2022-10-20T22:46:42.691Z,5.20
2022-10-20T22:49:13.277Z,4.70
2022-10-20T22:51:41.612Z,5.80
2022-10-20T22:54:10.083Z,5.50
2022-10-20T22:56:38.510Z,5.50
2022-10-20T22:59:07.053Z,5.80
2022-10-20T23:01:35.434Z,5.90
2022-10-20T23:04:03.792Z,5.50
2022-10-20T23:06:32.275Z,5.40
2022-10-20T23:09:00.721Z,6.00
2022-10-20T23:11:29.642Z,6.50
2022-10-20T23:13:57.924Z,5.30
2022-10-20T23:29:26.373Z,7.20
2022-10-20T23:31:54.735Z,6.80
2022-10-20T23:34:23.361Z,6.90
2022-10-20T23:36:52.008Z,6.00
2022-10-20T23:39:20.241Z,6.80
2022-10-20T23:41:48.557Z,5.70
2022-10-20T23:44:17.042Z,6.50
2022-10-20T23:46:45.435Z,6.30
2022-10-20T23:49:14.270Z,6.50
2022-10-20T23:51:42.603Z,6.50
2022-10-20T23:54:12.982Z,6.40
2022-10-20T23:56:41.303Z,6.30
2022-10-20T23:59:09.582Z,7.10
